バンガロール の空港の天気 - METARとTAF

ベンガルール国際空港 ( VOBL / BLR ) - インド バンガロール
飛行場実況気象(Metar)
観測時間10/18 14:00 IST (10/18 08:30 UTC)
風向・風速南東 4m/s
視程6000m
天気現象
全天の4割程度の雲 雲底高度 370m
全天の4割程度の雲 雲底高度 550m
気温26℃
湿度74%
気圧1014hPa
METARVOBL 180830Z 14008KT 080V180 6000 SCT012 SCT018 26/21 Q1014 NOSIG
過去の天気等 Google飛行場航空写真 Wunderground天気予報

過去48時間のMETAR

飛行場予報(TAF)
発表時間: 10/18 13:30 IST (10/18 08:00 UTC)
予報対象時間: 18日14時 IST ~ 18日23時 IST
風向・風速東南東 5m/s
視程6000m
全天の4割程度の雲 雲底高度 370m
全天の4割程度の雲 雲底高度 550m
18日14時 IST ~ 18日20時 IST に一時的に
視程3000m
天気現象雨 霧雨
全天の4割程度の雲 雲底高度 370m
全天の4割程度の雲 雲底高度 550m
少しの積乱雲 雲底高度 760m
全天の8割程度の雲 雲底高度 2440m
TAF VOBL 180800Z 1809/1818 11010KT 6000 SCT012 SCT018
TEMPO 1809/1815 3000 RA DZ SCT012 SCT018 FEW025CB BKN080